.
WxDataArchive / Data Records for 2006-08-19
2006-08-18 August 2006 2006-08-20

Data Records for Saturday, 19 August 2006

Time	Temp	Chill	HIndex	Humid	Dewpt	 Wind 	HiWind	WindDir	Rain 	Barom 
-----	----	-----	------	-----	-----	------	------	-------	-----	----- 
00:00	74.4	74.4	74.4	89	70.9	0	0	---	0.00	29.928 
00:05	74.6	74.6	74.6	89	71.1	0	0	---	0.00	29.928 
00:10	74.6	74.6	74.6	89	71.1	0	0	---	0.00	29.928 
00:15	74.6	74.6	74.6	88	70.8	0	1	270	0.00	29.920 
00:20	74.6	74.6	74.6	88	70.8	0	1	270	0.00	29.920 
00:25	74.6	74.6	74.6	88	70.8	0	1	270	0.00	29.920 
00:30	74.6	74.6	74.6	88	70.8	0	1	270	0.00	29.920 
00:35	74.6	74.6	74.6	88	70.8	0	1	270	0.00	29.920 
00:40	74.6	74.6	74.6	88	70.8	0	1	270	0.00	29.920 
00:45	74.6	74.6	74.6	88	70.8	0	0	---	0.00	29.920 
00:50	74.6	74.6	74.6	87	70.5	0	1	270	0.00	29.920 
00:55	74.6	74.6	74.6	87	70.5	0	1	270	0.00	29.920 
01:00	74.6	74.6	74.6	87	70.5	0	0	---	0.00	29.923 
01:05	74.6	74.6	74.6	87	70.5	0	1	270	0.00	29.923 
01:10	74.6	74.6	74.6	87	70.5	0	0	---	0.00	29.923 
01:15	74.6	74.6	74.6	86	70.1	0	0	---	0.00	29.926 
01:20	74.6	74.6	74.6	86	70.1	0	0	---	0.00	29.926 
01:25	74.6	74.6	74.6	86	70.1	0	0	---	0.00	29.926 
01:30	74.6	74.6	74.6	86	70.1	0	1	270	0.00	29.922 
01:35	74.6	74.6	74.6	85	69.8	0	1	270	0.00	29.922 
01:40	74.6	74.6	74.6	85	69.8	0	1	270	0.00	29.922 
01:45	74.7	74.7	74.7	85	69.9	0	0	---	0.00	29.921 
01:50	74.7	74.7	74.7	85	69.9	0	0	---	0.00	29.921 
01:55	74.6	74.6	74.6	85	69.8	0	0	---	0.00	29.921 
02:00	74.6	74.6	74.6	85	69.8	0	0	---	0.00	29.914 
02:05	74.6	74.6	74.6	85	69.8	0	1	270	0.00	29.914 
02:10	74.6	74.6	74.6	85	69.8	0	1	270	0.00	29.914 
02:15	74.6	74.6	74.6	85	69.8	0	1	270	0.00	29.898 
02:20	74.6	74.6	74.6	86	70.1	0	0	---	0.00	29.898 
02:25	74.4	74.4	74.4	86	69.9	0	1	270	0.00	29.898 
02:30	74.2	74.2	74.2	85	69.4	0	2	270	0.00	29.897 
02:35	74.2	74.2	74.2	85	69.4	0	1	248	0.00	29.897 
02:40	74.2	74.2	74.2	84	69.0	0	1	248	0.00	29.897 
02:45	74.2	74.2	74.2	84	69.0	0	1	248	0.00	29.897 
02:50	74.2	74.2	74.2	84	69.0	0	1	248	0.00	29.897 
02:55	74.2	74.2	74.2	84	69.0	0	1	248	0.00	29.897 
03:00	74.2	74.2	74.2	84	69.0	0	1	248	0.00	29.892 
03:05	74.2	74.2	74.2	84	69.0	0	2	248	0.00	29.892 
03:10	74.2	74.2	74.2	84	69.0	0	3	248	0.00	29.892 
03:15	74.2	74.2	74.2	84	69.0	0	1	248	0.00	29.884 
03:20	74.0	74.0	74.0	84	68.8	0	2	248	0.00	29.884 
03:25	74.0	74.0	74.0	84	68.8	0	2	248	0.00	29.884 
03:30	74.0	74.0	74.0	84	68.8	0	2	248	0.00	29.884 
03:35	74.0	74.0	74.0	84	68.8	1	3	248	0.00	29.884 
03:40	73.9	73.9	73.9	85	69.1	0	2	248	0.01	29.884 
03:45	73.9	73.9	73.9	86	69.4	0	3	248	0.00	29.880 
03:50	73.5	73.5	73.5	87	69.4	0	2	248	0.00	29.880 
03:55	73.3	73.3	73.3	87	69.2	1	3	292	0.00	29.880 
04:00	73.3	73.3	73.3	87	69.2	0	2	270	0.00	29.877 
04:05	73.2	73.2	73.2	87	69.1	1	3	270	0.01	29.877 
04:10	72.8	72.8	72.8	88	69.0	0	2	270	0.00	29.877 
04:15	72.7	72.7	72.7	89	69.3	0	1	270	0.00	29.872 
04:20	72.7	72.7	72.7	90	69.6	0	1	270	0.00	29.872 
04:25	72.5	72.5	72.5	90	69.4	0	0	---	0.00	29.872 
04:30	72.5	72.5	72.5	91	69.7	0	1	270	0.00	29.862 
04:35	72.3	72.3	72.3	91	69.5	0	0	---	0.00	29.862 
04:40	72.3	72.3	72.3	91	69.5	0	1	270	0.00	29.862 
04:45	72.3	72.3	72.3	91	69.5	0	1	270	0.00	29.859 
04:50	72.1	72.1	72.1	92	69.6	0	0	---	0.00	29.859 
04:55	72.1	72.1	72.1	92	69.6	0	0	---	0.00	29.859 
05:00	72.1	72.1	72.1	92	69.6	0	1	270	0.02	29.869 
05:05	72.1	72.1	72.1	92	69.6	0	1	270	0.03	29.869 
05:10	72.1	72.1	72.1	93	70.0	0	2	248	0.01	29.869 
05:15	72.0	72.0	72.0	93	69.9	2	4	248	0.00	29.875 
05:20	72.0	72.0	72.0	93	69.9	2	5	248	0.04	29.875 
05:25	71.8	71.8	71.8	92	69.3	3	10	270	0.05	29.875 
05:30	71.6	71.6	71.6	92	69.1	4	10	270	0.03	29.881 
05:35	71.5	71.5	71.5	93	69.4	1	4	270	0.03	29.881 
05:40	71.3	71.3	71.3	93	69.2	1	3	248	0.01	29.881 
05:45	71.1	71.1	71.1	93	69.0	1	5	270	0.01	29.861 
05:50	71.1	71.1	71.1	94	69.3	0	2	270	0.00	29.861 
05:55	71.1	71.1	71.1	94	69.3	0	2	270	0.01	29.861 
06:00	71.3	71.3	71.3	94	69.5	1	2	270	0.00	29.854 
06:05	71.3	71.3	71.3	94	69.5	0	1	225	0.01	29.854 
06:10	71.3	71.3	71.3	94	69.5	0	2	202	0.01	29.854 
06:15	71.3	71.3	71.3	94	69.5	0	2	202	0.00	29.851 
06:20	71.3	71.3	71.3	94	69.5	0	2	158	0.01	29.851 
06:25	71.3	71.3	71.3	94	69.5	1	3	158	0.01	29.851 
06:30	71.3	71.3	71.3	94	69.5	1	3	68	0.00	29.848 
06:35	71.3	71.3	71.3	95	69.8	0	2	90	0.01	29.848 
06:40	71.1	71.1	71.1	95	69.6	0	1	90	0.00	29.848 
06:45	71.1	71.1	71.1	95	69.6	0	2	90	0.01	29.852 
06:50	71.1	71.1	71.1	95	69.6	1	3	90	0.01	29.852 
06:55	71.1	71.1	71.1	95	69.6	0	1	90	0.01	29.852 
07:00	71.1	71.1	71.1	95	69.6	0	2	90	0.00	29.845 
07:05	71.1	71.1	71.1	95	69.6	0	2	90	0.00	29.845 
07:10	71.1	71.1	71.1	95	69.6	0	1	112	0.00	29.845 
07:15	71.1	71.1	71.1	95	69.6	0	1	112	0.00	29.844 
07:20	71.3	71.3	71.3	95	69.8	0	2	90	0.00	29.844 
07:25	71.3	71.3	71.3	95	69.8	1	3	270	0.00	29.844 
07:30	71.3	71.3	71.3	95	69.8	1	4	248	0.00	29.842 
07:35	71.3	71.3	71.3	95	69.8	1	5	248	0.00	29.842 
07:40	71.3	71.3	71.3	95	69.8	1	4	248	0.00	29.842 
07:45	71.5	71.5	71.5	95	70.0	1	4	248	0.00	29.843 
07:50	71.5	71.5	71.5	95	70.0	2	4	248	0.00	29.843 
07:55	71.5	71.5	71.5	95	70.0	1	3	248	0.00	29.843 
08:00	71.6	71.6	71.6	95	70.1	2	5	270	0.00	29.839 
08:05	71.8	71.8	71.8	94	70.0	1	4	270	0.00	29.839 
08:10	71.8	71.8	71.8	94	70.0	1	4	248	0.00	29.839 
08:15	71.8	71.8	71.8	94	70.0	1	3	248	0.00	29.841 
08:20	71.8	71.8	71.8	94	70.0	1	4	248	0.00	29.841 
08:25	72.0	72.0	72.0	94	70.2	1	4	248	0.00	29.841 
08:30	72.0	72.0	72.0	94	70.2	1	3	248	0.00	29.840 
08:35	72.0	72.0	72.0	94	70.2	1	3	225	0.00	29.840 
08:40	72.1	72.1	72.1	94	70.3	2	5	248	0.00	29.840 
08:45	72.1	72.1	72.1	94	70.3	1	3	248	0.00	29.841 
08:50	72.1	72.1	72.1	94	70.3	2	4	248	0.00	29.841 
08:55	72.1	72.1	72.1	94	70.3	2	5	248	0.00	29.841 
09:00	72.1	72.1	72.1	94	70.3	2	4	248	0.00	29.841 
09:05	72.1	72.1	72.1	94	70.3	2	4	248	0.00	29.841 
09:10	72.3	72.3	72.3	94	70.5	1	3	248	0.00	29.841 
09:15	72.3	72.3	72.3	94	70.5	1	3	248	0.00	29.842 
09:20	72.3	72.3	72.3	93	70.2	2	4	248	0.00	29.842 
09:25	72.5	72.5	72.5	93	70.4	1	3	248	0.00	29.842 
09:30	72.5	72.5	72.5	93	70.4	2	4	248	0.00	29.840 
09:35	72.5	72.5	72.5	93	70.4	2	4	248	0.00	29.840 
09:40	72.5	72.5	72.5	92	70.0	2	4	248	0.00	29.840 
09:45	72.7	72.7	72.7	92	70.2	2	4	248	0.00	29.838 
09:50	72.8	72.8	72.8	92	70.3	2	4	270	0.00	29.838 
09:55	73.0	73.0	73.0	92	70.5	2	4	248	0.00	29.838 
10:00	73.3	73.3	73.3	91	70.5	2	4	248	0.00	29.833 
10:05	73.3	73.3	73.3	90	70.2	1	3	248	0.00	29.833 
10:10	73.3	73.3	73.3	90	70.2	1	3	248	0.00	29.833 
10:15	73.3	73.3	73.3	91	70.5	2	4	248	0.00	29.837 
10:20	73.3	73.3	73.3	90	70.2	2	4	248	0.00	29.837 
10:25	73.3	73.3	73.3	90	70.2	2	4	248	0.00	29.837 
10:30	73.5	73.5	73.5	90	70.4	2	3	270	0.00	29.843 
10:35	73.5	73.5	73.5	89	70.0	2	3	270	0.00	29.843 
10:40	73.9	73.9	73.9	88	70.1	2	4	248	0.00	29.843 
10:45	73.9	73.9	73.9	88	70.1	2	4	248	0.00	29.849 
10:50	74.4	74.4	74.4	87	70.3	2	5	248	0.00	29.849 
10:55	75.1	75.1	74.9	86	70.6	2	4	248	0.00	29.849 
11:00	75.6	75.6	75.9	85	70.8	2	3	292	0.00	29.848 
11:05	75.4	75.4	75.8	83	69.9	2	4	270	0.00	29.848 
11:10	75.4	75.4	75.7	84	70.2	2	4	248	0.00	29.848 
11:15	75.4	75.4	75.8	83	69.9	2	4	270	0.00	29.857 
11:20	75.8	75.8	76.4	83	70.3	1	4	270	0.00	29.857 
11:25	75.8	75.8	76.6	81	69.5	2	4	292	0.00	29.857 
11:30	75.6	75.6	76.2	82	69.7	2	4	292	0.00	29.857 
11:35	75.6	75.6	76.3	81	69.3	2	5	292	0.00	29.857 
11:40	75.6	75.6	76.3	81	69.3	2	4	270	0.00	29.857 
11:45	76.3	76.3	77.5	80	69.7	2	4	270	0.00	29.857 
11:50	76.7	76.7	78.1	79	69.7	3	5	292	0.00	29.857 
11:55	76.5	76.5	77.9	78	69.1	3	5	270	0.00	29.857 
12:00	76.7	76.7	78.2	78	69.3	2	4	270	0.00	29.863 
12:05	76.8	76.8	78.3	78	69.4	2	5	270	0.00	29.863 
12:10	76.7	76.7	78.2	77	68.9	2	4	270	0.00	29.863 
12:15	76.7	76.7	78.2	77	68.9	2	5	270	0.00	29.859 
12:20	76.7	76.7	78.2	77	68.9	3	6	270	0.00	29.859 
12:25	76.8	76.8	78.4	77	69.0	2	5	270	0.00	29.859 
12:30	76.7	76.7	78.2	77	68.9	2	5	292	0.00	29.865 
12:35	76.7	76.7	78.2	77	68.9	2	5	248	0.00	29.865 
12:40	77.0	77.0	78.6	78	69.6	2	4	292	0.00	29.865 
12:45	77.9	77.9	80.0	76	69.7	3	5	270	0.00	29.869 
12:50	78.5	78.5	80.9	74	69.5	3	5	292	0.00	29.869 
12:55	78.1	78.1	80.3	74	69.1	2	5	270	0.00	29.869 
13:00	77.7	77.7	79.7	74	68.7	2	3	292	0.00	29.869 
13:05	77.6	77.6	79.6	74	68.6	2	4	248	0.00	29.869 
13:10	77.4	77.4	79.3	75	68.8	2	4	292	0.00	29.869 
13:15	77.2	77.2	79.0	75	68.6	2	5	292	0.00	29.869 
13:20	77.2	77.2	79.0	76	69.0	2	4	315	0.00	29.869 
13:25	77.4	77.4	79.3	76	69.2	2	6	270	0.00	29.869 
13:30	77.6	77.6	79.6	75	69.0	2	3	270	0.00	29.870 
13:35	77.6	77.6	79.6	74	68.6	3	6	270	0.00	29.870 
13:40	77.6	77.6	79.6	75	69.0	2	4	315	0.00	29.870 
13:45	77.7	77.7	79.7	75	69.1	2	4	248	0.00	29.868 
13:50	78.1	78.1	80.3	75	69.5	2	4	248	0.00	29.868 
13:55	78.3	78.3	80.6	73	68.9	3	5	248	0.00	29.868 
14:00	77.9	77.9	80.0	74	68.9	2	5	270	0.00	29.870 
14:05	77.9	77.9	80.0	74	68.9	3	7	270	0.00	29.870 
14:10	78.3	78.3	80.6	73	68.9	3	5	315	0.00	29.870 
14:15	78.6	78.6	81.1	74	69.6	3	6	270	0.00	29.867 
14:20	79.2	79.2	82.0	73	69.8	3	5	270	0.00	29.867 
14:25	79.4	79.4	82.2	72	69.6	3	5	270	0.00	29.867 
14:30	79.6	79.6	82.5	72	69.8	3	8	270	0.00	29.862 
14:35	79.6	79.6	82.3	70	68.9	3	7	315	0.00	29.862 
14:40	79.4	79.4	82.1	71	69.2	3	6	315	0.00	29.862 
14:45	79.4	79.4	82.1	71	69.2	3	7	270	0.00	29.866 
14:50	79.4	79.4	82.0	70	68.7	3	5	315	0.00	29.866 
14:55	79.8	79.8	82.6	70	69.1	3	6	270	0.00	29.866 
15:00	79.6	79.6	82.4	71	69.3	2	4	315	0.00	29.860 
15:05	79.4	79.4	82.0	70	68.7	2	4	315	0.00	29.860 
15:10	79.6	79.6	82.4	71	69.3	2	3	270	0.00	29.860 
15:15	79.9	79.9	82.8	70	69.2	3	6	270	0.00	29.860 
15:20	79.9	79.9	82.8	70	69.2	3	5	292	0.00	29.860 
15:25	79.9	79.9	82.7	69	68.8	3	6	270	0.00	29.860 
15:30	80.5	80.5	83.8	70	69.8	2	5	248	0.00	29.855 
15:35	80.7	80.7	83.8	68	69.1	2	5	270	0.00	29.855 
15:40	81.1	81.1	84.5	68	69.5	2	4	270	0.00	29.855 
15:45	81.4	81.4	85.0	68	69.8	3	6	270	0.00	29.850 
15:50	82.0	82.0	85.6	66	69.5	3	5	292	0.00	29.850 
15:55	82.2	82.2	85.7	65	69.2	3	6	270	0.00	29.850 
16:00	81.6	81.6	84.9	66	69.1	2	7	292	0.00	29.844 
16:05	81.1	81.1	84.3	67	69.1	2	4	292	0.00	29.844 
16:10	81.6	81.6	84.7	65	68.7	3	7	270	0.00	29.844 
16:15	81.8	81.8	85.1	65	68.9	2	4	270	0.00	29.841 
16:20	81.2	81.2	84.3	66	68.7	2	4	315	0.00	29.841 
16:25	81.1	81.1	84.3	67	69.1	2	5	270	0.00	29.841 
16:30	80.9	80.9	84.1	68	69.3	1	2	270	0.00	29.840 
16:35	81.2	81.2	84.6	68	69.6	1	3	0	0.00	29.840 
16:40	81.2	81.2	84.5	67	69.2	2	5	315	0.00	29.840 
16:45	81.1	81.1	84.3	67	69.1	2	5	270	0.00	29.838 
16:50	81.2	81.2	84.3	66	68.7	1	3	315	0.00	29.838 
16:55	81.1	81.1	84.1	66	68.6	1	3	315	0.00	29.838 
17:00	81.2	81.2	84.1	65	68.3	2	4	315	0.00	29.839 
17:05	80.9	80.9	83.7	65	68.0	2	4	338	0.00	29.839 
17:10	80.7	80.7	83.4	65	67.8	1	3	292	0.00	29.839 
17:15	81.2	81.2	84.1	65	68.3	2	6	315	0.00	29.840 
17:20	81.2	81.2	84.1	65	68.3	2	7	315	0.00	29.840 
17:25	81.2	81.2	84.1	65	68.3	2	4	315	0.00	29.840 
17:30	81.2	81.2	84.1	65	68.3	1	3	315	0.00	29.841 
17:35	81.1	81.1	84.0	65	68.2	1	4	292	0.00	29.841 
17:40	80.9	80.9	83.8	66	68.4	1	3	270	0.00	29.841 
17:45	80.9	80.9	83.7	65	68.0	2	5	315	0.00	29.844 
17:50	80.3	80.3	82.8	65	67.4	2	5	315	0.00	29.844 
17:55	79.9	79.9	82.3	66	67.5	1	4	315	0.00	29.844 
18:00	79.8	79.8	82.3	67	67.8	1	4	292	0.00	29.856 
18:05	79.4	79.4	81.8	68	67.9	1	4	270	0.00	29.856 
18:10	79.2	79.2	81.5	68	67.7	1	4	270	0.00	29.856 
18:15	79.2	79.2	81.6	69	68.1	1	4	270	0.00	29.857 
18:20	79.2	79.2	81.7	70	68.5	1	3	248	0.00	29.857 
18:25	79.2	79.2	81.6	69	68.1	1	3	292	0.00	29.857 
18:30	79.2	79.2	81.6	69	68.1	1	2	315	0.00	29.858 
18:35	79.0	79.0	81.3	69	67.9	1	3	315	0.00	29.858 
18:40	79.0	79.0	81.3	69	67.9	1	3	315	0.00	29.858 
18:45	79.0	79.0	81.4	70	68.4	0	3	338	0.00	29.860 
18:50	78.8	78.8	81.1	69	67.7	1	2	338	0.00	29.860 
18:55	78.3	78.3	80.4	69	67.3	1	2	22	0.00	29.860 
19:00	77.9	77.9	79.9	70	67.3	1	3	292	0.00	29.864 
19:05	77.7	77.7	79.7	71	67.5	1	2	292	0.00	29.864 
19:10	77.6	77.6	79.5	72	67.8	1	2	292	0.00	29.864 
19:15	77.6	77.6	79.5	72	67.8	0	1	292	0.00	29.860 
19:20	77.4	77.4	79.3	72	67.6	0	2	292	0.00	29.860 
19:25	77.4	77.4	79.3	72	67.6	0	1	315	0.00	29.860 
19:30	77.4	77.4	79.3	72	67.6	0	1	315	0.00	29.859 
19:35	77.4	77.4	79.3	72	67.6	1	2	315	0.00	29.859 
19:40	77.2	77.2	79.0	72	67.5	0	2	315	0.00	29.859 
19:45	77.2	77.2	79.0	73	67.9	0	2	315	0.00	29.857 
19:50	77.0	77.0	78.7	73	67.7	0	2	315	0.00	29.857 
19:55	77.0	77.0	78.7	73	67.7	0	2	315	0.00	29.857 
20:00	77.0	77.0	78.7	73	67.7	0	2	315	0.00	29.859 
20:05	76.8	76.8	78.5	73	67.5	1	3	315	0.00	29.859 
20:10	76.8	76.8	78.5	73	67.5	1	3	248	0.00	29.859 
20:15	76.7	76.7	78.3	73	67.4	0	2	270	0.00	29.863 
20:20	76.7	76.7	78.3	73	67.4	0	2	270	0.00	29.863 
20:25	76.5	76.5	78.1	74	67.6	0	1	270	0.00	29.863 
20:30	76.3	76.3	77.8	74	67.4	0	2	292	0.00	29.872 
20:35	76.1	76.1	77.7	72	66.4	1	3	270	0.00	29.872 
20:40	76.0	76.0	77.5	72	66.3	0	2	292	0.00	29.872 
20:45	75.8	75.8	77.3	72	66.1	1	4	292	0.00	29.871 
20:50	75.8	75.8	77.3	72	66.1	1	4	338	0.00	29.871 
20:55	75.4	75.4	76.8	73	66.1	0	2	315	0.00	29.871 
21:00	75.3	75.3	76.7	73	66.0	0	2	315	0.00	29.874 
21:05	75.1	75.1	76.4	74	66.2	0	1	315	0.00	29.874 
21:10	74.7	74.7	74.7	75	66.2	0	2	315	0.00	29.874 
21:15	74.4	74.4	74.4	76	66.3	0	1	315	0.00	29.875 
21:20	74.2	74.2	74.2	77	66.5	0	1	315	0.00	29.875 
21:25	74.0	74.0	74.0	77	66.3	0	1	315	0.00	29.875 
21:30	73.9	73.9	73.9	77	66.2	0	1	315	0.00	29.880 
21:35	73.7	73.7	73.7	78	66.4	0	1	315	0.00	29.880 
21:40	73.7	73.7	73.7	78	66.4	0	1	315	0.00	29.880 
21:45	73.5	73.5	73.5	78	66.2	0	1	315	0.00	29.888 
21:50	73.3	73.3	73.3	78	66.0	0	2	315	0.00	29.888 
21:55	73.2	73.2	73.2	78	65.9	0	2	315	0.00	29.888 
22:00	73.0	73.0	73.0	78	65.7	0	1	315	0.00	29.892 
22:05	72.8	72.8	72.8	79	65.9	0	1	315	0.00	29.892 
22:10	72.7	72.7	72.7	78	65.4	0	1	315	0.00	29.892 
22:15	72.5	72.5	72.5	79	65.6	0	1	315	0.00	29.890 
22:20	72.3	72.3	72.3	79	65.4	0	0	---	0.00	29.890 
22:25	72.1	72.1	72.1	79	65.2	0	1	315	0.00	29.890 
22:30	72.0	72.0	72.0	79	65.1	0	1	315	0.00	29.895 
22:35	72.0	72.0	72.0	79	65.1	0	1	315	0.00	29.895 
22:40	71.8	71.8	71.8	79	64.9	0	1	315	0.00	29.895 
22:45	71.8	71.8	71.8	79	64.9	0	1	315	0.00	29.897 
22:50	71.6	71.6	71.6	79	64.7	0	1	315	0.00	29.897 
22:55	71.5	71.5	71.5	80	65.0	1	2	315	0.00	29.897 
23:00	71.5	71.5	71.5	80	65.0	1	3	270	0.00	29.899 
23:05	71.3	71.3	71.3	80	64.8	0	1	270	0.00	29.899 
23:10	70.9	70.9	70.9	81	64.8	1	3	315	0.00	29.899 
23:15	70.9	70.9	70.9	81	64.8	0	1	292	0.00	29.901 
23:20	70.8	70.8	70.8	81	64.7	0	2	292	0.00	29.901 
23:25	70.6	70.6	70.6	81	64.5	0	1	315	0.00	29.901 
23:30	70.4	70.4	70.4	82	64.6	1	2	292	0.00	29.902 
23:35	70.3	70.3	70.3	82	64.5	0	2	292	0.00	29.902 
23:40	70.1	70.1	70.1	83	64.7	0	2	292	0.00	29.902 
23:45	69.9	69.9	69.9	83	64.5	0	1	292	0.00	29.899 
23:50	69.8	69.8	69.8	83	64.4	0	1	292	0.00	29.899 
23:55	69.6	69.6	69.6	84	64.5	0	1	292	0.00	29.899 

CoCoRaHS
IN-AL-39
A2 Web Hosting
Creative Commons License
GoDaddy
Look for:

loaded 2017-10-20 19:39:08 • last modified 2010-11-18 10:43:29
Privacy PolicyDisclaimer
• wx.awcolley.com is powered by PmWiki v.2002016 •
• all content (unless otherwise noted) © 2017 A W Colley